sensor_id;sensor_type;location;lat;lon;timestamp;pressure;altitude;pressure_sealevel;temperature;humidity
74435;BME280;62867;52.038;29.256;2023-03-26T00:04:13;1007.2;;;11.7;73.8
74435;BME280;62867;52.038;29.256;2023-03-26T00:09:15;1007.1;;;11.7;73.8
74435;BME280;62867;52.038;29.256;2023-03-26T00:13:39;1007.2;;;11.6;73.7
74435;BME280;62867;52.038;29.256;2023-03-26T00:18:49;1007.1;;;11.6;73.6
74435;BME280;62867;52.038;29.256;2023-03-26T00:24:31;1007.1;;;11.5;73.7
74435;BME280;62867;52.038;29.256;2023-03-26T00:29:03;1007;;;11.5;74
74435;BME280;62867;52.038;29.256;2023-03-26T00:34:15;1007;;;11.5;73.8
74435;BME280;62867;52.038;29.256;2023-03-26T00:38:49;1007;;;11.5;74.2
74435;BME280;62867;52.038;29.256;2023-03-26T00:43:50;1007;;;11.5;74.4
74435;BME280;62867;52.038;29.256;2023-03-26T00:49:31;1007;;;11.5;74
74435;BME280;62867;52.038;29.256;2023-03-26T00:54:15;1007.1;;;11.5;74.3
74435;BME280;62867;52.038;29.256;2023-03-26T00:59:03;1007.1;;;11.5;74.2
74435;BME280;62867;52.038;29.256;2023-03-26T01:03:40;1007.1;;;11.5;74
74435;BME280;62867;52.038;29.256;2023-03-26T01:08:51;1007.1;;;11.5;73.8
74435;BME280;62867;52.038;29.256;2023-03-26T01:14:33;1007.1;;;11.4;73.4
74435;BME280;62867;52.038;29.256;2023-03-26T01:19:18;1007;;;11.3;73.6
74435;BME280;62867;52.038;29.256;2023-03-26T01:24:11;1007;;;11.3;73.7
74435;BME280;62867;52.038;29.256;2023-03-26T01:28:55;1007;;;11.2;73
74435;BME280;62867;52.038;29.256;2023-03-26T01:34:06;1007;;;11.2;72.3
74435;BME280;62867;52.038;29.256;2023-03-26T01:39:34;1007;;;11.1;72.9
74435;BME280;62867;52.038;29.256;2023-03-26T01:44:14;1007;;;11.1;73.1
74435;BME280;62867;52.038;29.256;2023-03-26T01:49:33;1006.9;;;11;72.6
74435;BME280;62867;52.038;29.256;2023-03-26T01:54:04;1006.9;;;11;72.1
74435;BME280;62867;52.038;29.256;2023-03-26T01:58:52;1006.8;;;11;72.3
74435;BME280;62867;52.038;29.256;2023-03-26T02:04:31;1006.9;;;10.9;72.4
74435;BME280;62867;52.038;29.256;2023-03-26T02:09:14;1007;;;10.8;71.9
74435;BME280;62867;52.038;29.256;2023-03-26T02:14:31;1007;;;10.7;72.5
74435;BME280;62867;52.038;29.256;2023-03-26T02:19:05;1007;;;10.7;73.1
74435;BME280;62867;52.038;29.256;2023-03-26T02:23:40;1007;;;10.6;73.2
74435;BME280;62867;52.038;29.256;2023-03-26T02:29:31;1007;;;10.6;72.9
74435;BME280;62867;52.038;29.256;2023-03-26T02:34:15;1007.1;;;10.6;73.2
74435;BME280;62867;52.038;29.256;2023-03-26T02:39:33;1007.1;;;10.6;73.3
74435;BME280;62867;52.038;29.256;2023-03-26T02:44:05;1007;;;10.6;73.2
74435;BME280;62867;52.038;29.256;2023-03-26T02:48:49;1007;;;10.6;73.4
74435;BME280;62867;52.038;29.256;2023-03-26T02:54:31;1007;;;10.5;73.4
74435;BME280;62867;52.038;29.256;2023-03-26T02:59:33;1007;;;10.5;73.5
74435;BME280;62867;52.038;29.256;2023-03-26T03:04:31;1007;;;10.5;73.3
74435;BME280;62867;52.038;29.256;2023-03-26T03:09:07;1007;;;10.5;73.2
74435;BME280;62867;52.038;29.256;2023-03-26T03:13:39;1007;;;10.4;73.3
74435;BME280;62867;52.038;29.256;2023-03-26T03:18:39;1007;;;10.4;73.3
74435;BME280;62867;52.038;29.256;2023-03-26T03:24:15;1007;;;10.4;73.4
74435;BME280;62867;52.038;29.256;2023-03-26T03:29:33;1007;;;10.3;73.4
74435;BME280;62867;52.038;29.256;2023-03-26T03:33:39;1007;;;10.3;73.9
74435;BME280;62867;52.038;29.256;2023-03-26T03:39:19;1007;;;10.2;74.1
74435;BME280;62867;52.038;29.256;2023-03-26T03:44:05;1007;;;10.2;73.9
74435;BME280;62867;52.038;29.256;2023-03-26T03:49:15;1007;;;10.2;73.8
74435;BME280;62867;52.038;29.256;2023-03-26T03:54:15;1007;;;10.2;73.9
74435;BME280;62867;52.038;29.256;2023-03-26T03:58:39;1007;;;10.2;74.2
74435;BME280;62867;52.038;29.256;2023-03-26T04:04:07;1007;;;10.2;74.1
74435;BME280;62867;52.038;29.256;2023-03-26T04:09:07;1007;;;10.2;74.2
74435;BME280;62867;52.038;29.256;2023-03-26T04:14:15;1006.9;;;10.2;74.3
74435;BME280;62867;52.038;29.256;2023-03-26T04:19:31;1006.8;;;10.2;74.4
74435;BME280;62867;52.038;29.256;2023-03-26T04:24:07;1006.9;;;10.2;74.8
74435;BME280;62867;52.038;29.256;2023-03-26T04:28:40;1006.9;;;10.2;75.3
74435;BME280;62867;52.038;29.256;2023-03-26T04:33:55;1006.9;;;10.2;75.5
74435;BME280;62867;52.038;29.256;2023-03-26T04:38:42;1006.9;;;10.1;75.7
74435;BME280;62867;52.038;29.256;2023-03-26T04:44:13;1007;;;10;75.3
74435;BME280;62867;52.038;29.256;2023-03-26T04:48:55;1007.1;;;10;75.3
74435;BME280;62867;52.038;29.256;2023-03-26T04:53:39;1007.1;;;10;75.6
74435;BME280;62867;52.038;29.256;2023-03-26T04:59:05;1007.1;;;10;75.3
74435;BME280;62867;52.038;29.256;2023-03-26T05:04:03;1007.1;;;9.9;75.8
74435;BME280;62867;52.038;29.256;2023-03-26T05:09:33;1007.1;;;10;75.7
74435;BME280;62867;52.038;29.256;2023-03-26T05:13:47;1007.1;;;10;75.6
74435;BME280;62867;52.038;29.256;2023-03-26T05:18:55;1007.1;;;10.1;75.5
74435;BME280;62867;52.038;29.256;2023-03-26T05:23:47;1007.1;;;10.3;75.5
74435;BME280;62867;52.038;29.256;2023-03-26T05:29:02;1007.1;;;10.4;75
74435;BME280;62867;52.038;29.256;2023-03-26T05:33:41;1007.1;;;10.4;75.1
74435;BME280;62867;52.038;29.256;2023-03-26T05:39:05;1007.1;;;10.6;74.9
74435;BME280;62867;52.038;29.256;2023-03-26T05:43:47;1007.1;;;10.7;74.8
74435;BME280;62867;52.038;29.256;2023-03-26T05:49:03;1007.2;;;10.9;74.3
74435;BME280;62867;52.038;29.256;2023-03-26T05:54:31;1007.4;;;11;73.8
74435;BME280;62867;52.038;29.256;2023-03-26T05:59:31;1007.4;;;11;73.4
74435;BME280;62867;52.038;29.256;2023-03-26T06:03:47;1007.5;;;11;73.1
74435;BME280;62867;52.038;29.256;2023-03-26T06:09:15;1007.5;;;11.1;72.8
74435;BME280;62867;52.038;29.256;2023-03-26T06:13:47;1007.5;;;11.2;72.8
74435;BME280;62867;52.038;29.256;2023-03-26T06:19:13;1007.5;;;11.5;72.7
74435;BME280;62867;52.038;29.256;2023-03-26T06:24:33;1007.5;;;11.8;71.4
74435;BME280;62867;52.038;29.256;2023-03-26T06:29:05;1007.5;;;12;70.7
74435;BME280;62867;52.038;29.256;2023-03-26T06:33:49;1007.6;;;12;70.8
74435;BME280;62867;52.038;29.256;2023-03-26T06:38:55;1007.5;;;12;71.1
74435;BME280;62867;52.038;29.256;2023-03-26T06:44:13;1007.5;;;12.1;70.6
74435;BME280;62867;52.038;29.256;2023-03-26T06:49:33;1007.5;;;12.3;70.6
74435;BME280;62867;52.038;29.256;2023-03-26T06:54:07;1007.6;;;12.6;70.1
74435;BME280;62867;52.038;29.256;2023-03-26T06:59:33;1007.6;;;12.6;70
74435;BME280;62867;52.038;29.256;2023-03-26T07:03:39;1007.6;;;12.5;69.8
74435;BME280;62867;52.038;29.256;2023-03-26T07:09:13;1007.6;;;12.4;70.3
74435;BME280;62867;52.038;29.256;2023-03-26T07:14:33;1007.6;;;12.3;70.3
74435;BME280;62867;52.038;29.256;2023-03-26T07:19:07;1007.7;;;12.3;69.7
74435;BME280;62867;52.038;29.256;2023-03-26T07:23:39;1007.7;;;12.2;70
74435;BME280;62867;52.038;29.256;2023-03-26T07:29:06;1007.8;;;12.2;70
74435;BME280;62867;52.038;29.256;2023-03-26T07:34:35;1007.7;;;12.4;70.3
74435;BME280;62867;52.038;29.256;2023-03-26T07:39:20;1007.7;;;12.6;70.2
74435;BME280;62867;52.038;29.256;2023-03-26T07:44:37;1007.7;;;12.6;70.4
74435;BME280;62867;52.038;29.256;2023-03-26T07:48:51;1007.7;;;12.6;70.1
74435;BME280;62867;52.038;29.256;2023-03-26T07:54:19;1007.7;;;12.6;70.4
74435;BME280;62867;52.038;29.256;2023-03-26T07:59:22;1007.7;;;12.7;70.4
74435;BME280;62867;52.038;29.256;2023-03-26T08:04:06;1007.8;;;12.7;70.1
74435;BME280;62867;52.038;29.256;2023-03-26T08:09:33;1007.8;;;12.7;69.7
74435;BME280;62867;52.038;29.256;2023-03-26T08:13:53;1007.8;;;12.7;70
74435;BME280;62867;52.038;29.256;2023-03-26T08:19:27;1007.8;;;12.7;69.9
74435;BME280;62867;52.038;29.256;2023-03-26T08:24:19;1007.8;;;12.6;70.2
74435;BME280;62867;52.038;29.256;2023-03-26T08:29:19;1007.9;;;12.5;70.5
74435;BME280;62867;52.038;29.256;2023-03-26T08:34:35;1007.9;;;12.4;70.5
74435;BME280;62867;52.038;29.256;2023-03-26T08:38:49;1007.9;;;12.5;70.9
74435;BME280;62867;52.038;29.256;2023-03-26T08:45:25;1007.8;;;12.6;70.6
74435;BME280;62867;52.038;29.256;2023-03-26T08:49:37;1007.8;;;12.8;70.3
74435;BME280;62867;52.038;29.256;2023-03-26T08:54:40;1007.8;;;13.2;69.6
74435;BME280;62867;52.038;29.256;2023-03-26T08:59:39;1007.9;;;13.5;69
74435;BME280;62867;52.038;29.256;2023-03-26T09:03:45;1008;;;13.5;67.8
74435;BME280;62867;52.038;29.256;2023-03-26T09:09:12;1008.2;;;13.3;68.1
74435;BME280;62867;52.038;29.256;2023-03-26T09:14:36;1008.2;;;13.2;67.5
74435;BME280;62867;52.038;29.256;2023-03-26T09:25:09;1008.2;;;13.2;67.5
74435;BME280;62867;52.038;29.256;2023-03-26T09:34:22;1008.1;;;13.3;67.6
74435;BME280;62867;52.038;29.256;2023-03-26T09:39:16;1008.1;;;13.4;67.9
74435;BME280;62867;52.038;29.256;2023-03-26T09:44:20;1008.1;;;13.7;67.8
74435;BME280;62867;52.038;29.256;2023-03-26T09:49:37;1008;;;13.9;67.4
74435;BME280;62867;52.038;29.256;2023-03-26T09:53:43;1008;;;14.3;67.1
74435;BME280;62867;52.038;29.256;2023-03-26T09:59:03;1008;;;14.8;65.4
74435;BME280;62867;52.038;29.256;2023-03-26T10:04:38;1008;;;15.5;63.3
74435;BME280;62867;52.038;29.256;2023-03-26T10:09:34;1007.9;;;16.1;61.1
74435;BME280;62867;52.038;29.256;2023-03-26T10:14:34;1007.8;;;16.5;59.6
74435;BME280;62867;52.038;29.256;2023-03-26T10:18:44;1007.8;;;16.7;58.6
74435;BME280;62867;52.038;29.256;2023-03-26T10:24:07;1007.8;;;16.7;58.6
74435;BME280;62867;52.038;29.256;2023-03-26T10:29:36;1007.9;;;16.6;58.4
74435;BME280;62867;52.038;29.256;2023-03-26T10:34:22;1007.9;;;16.1;58.6
74435;BME280;62867;52.038;29.256;2023-03-26T10:39:33;1007.8;;;16;59.9
74435;BME280;62867;52.038;29.256;2023-03-26T10:43:51;1007.8;;;16.1;59
74435;BME280;62867;52.038;29.256;2023-03-26T10:49:11;1007.8;;;16.2;59
74435;BME280;62867;52.038;29.256;2023-03-26T10:54:34;1007.7;;;16.7;58.7
74435;BME280;62867;52.038;29.256;2023-03-26T10:59:16;1007.7;;;17;56.9
74435;BME280;62867;52.038;29.256;2023-03-26T11:04:31;1007.6;;;17.1;56.4
74435;BME280;62867;52.038;29.256;2023-03-26T11:09:04;1007.6;;;17.6;54.5
74435;BME280;62867;52.038;29.256;2023-03-26T11:14:02;1007.6;;;17.7;53.6
74435;BME280;62867;52.038;29.256;2023-03-26T11:19:23;1007.5;;;17.5;52.9
74435;BME280;62867;52.038;29.256;2023-03-26T11:24:06;1007.4;;;17.3;52.6
74435;BME280;62867;52.038;29.256;2023-03-26T11:29:36;1007.3;;;18;52.8
74435;BME280;62867;52.038;29.256;2023-03-26T11:33:49;1007.2;;;18.9;50.5
74435;BME280;62867;52.038;29.256;2023-03-26T11:39:18;1007.1;;;19.4;49.8
74435;BME280;62867;52.038;29.256;2023-03-26T11:44:32;1007.1;;;20;48.8
74435;BME280;62867;52.038;29.256;2023-03-26T11:49:17;1007.1;;;20.3;47.4
74435;BME280;62867;52.038;29.256;2023-03-26T11:54:33;1007.1;;;20.4;46.6
74435;BME280;62867;52.038;29.256;2023-03-26T11:58:48;1007.1;;;20.1;45.6
74435;BME280;62867;52.038;29.256;2023-03-26T12:03:54;1007.1;;;19.9;44.9
74435;BME280;62867;52.038;29.256;2023-03-26T12:08:47;1007;;;20.9;42.7
74435;BME280;62867;52.038;29.256;2023-03-26T12:14:15;1006.9;;;21.3;40.6
74435;BME280;62867;52.038;29.256;2023-03-26T12:19:17;1006.9;;;21.2;40.5
74435;BME280;62867;52.038;29.256;2023-03-26T12:24:03;1006.9;;;21.3;40.5
74435;BME280;62867;52.038;29.256;2023-03-26T12:29:07;1006.9;;;21.7;39.8
74435;BME280;62867;52.038;29.256;2023-03-26T12:34:20;1006.8;;;21.2;40.5
74435;BME280;62867;52.038;29.256;2023-03-26T12:39:24;1006.8;;;20.7;41.2
74435;BME280;62867;52.038;29.256;2023-03-26T12:44:33;1006.8;;;20.3;41.2
74435;BME280;62867;52.038;29.256;2023-03-26T12:48:39;1006.8;;;20.2;41.1
74435;BME280;62867;52.038;29.256;2023-03-26T12:54:06;1006.7;;;20.5;40.5
74435;BME280;62867;52.038;29.256;2023-03-26T12:58:58;1006.8;;;21;39
74435;BME280;62867;52.038;29.256;2023-03-26T13:04:33;1006.8;;;22;37.2
74435;BME280;62867;52.038;29.256;2023-03-26T13:09:31;1006.8;;;21.4;36.8
74435;BME280;62867;52.038;29.256;2023-03-26T13:13:44;1006.8;;;20.6;38.8
74435;BME280;62867;52.038;29.256;2023-03-26T13:19:05;1006.9;;;20.1;39.8
74435;BME280;62867;52.038;29.256;2023-03-26T13:24:07;1007;;;19.1;41.5
74435;BME280;62867;52.038;29.256;2023-03-26T13:29:33;1007.1;;;18.2;42.9
74435;BME280;62867;52.038;29.256;2023-03-26T13:34:31;1007.2;;;17.5;43.4
74435;BME280;62867;52.038;29.256;2023-03-26T13:38:51;1007.3;;;16.9;43.7
74435;BME280;62867;52.038;29.256;2023-03-26T13:43:42;1007.4;;;16;44.1
74435;BME280;62867;52.038;29.256;2023-03-26T13:48:40;1007.5;;;15.4;46
74435;BME280;62867;52.038;29.256;2023-03-26T13:54:14;1007.5;;;14.9;48.5
74435;BME280;62867;52.038;29.256;2023-03-26T13:59:02;1007.4;;;14.5;50.8
74435;BME280;62867;52.038;29.256;2023-03-26T14:03:42;1007.4;;;14.1;52.7
74435;BME280;62867;52.038;29.256;2023-03-26T14:09:06;1007.4;;;14;53.2
74435;BME280;62867;52.038;29.256;2023-03-26T14:14:04;1007.3;;;13.9;53.7
74435;BME280;62867;52.038;29.256;2023-03-26T14:18:43;1007.3;;;13.9;54.1
74435;BME280;62867;52.038;29.256;2023-03-26T14:24:18;1007.3;;;14;53.8
74435;BME280;62867;52.038;29.256;2023-03-26T14:34:17;1007.2;;;14.2;53.9
74435;BME280;62867;52.038;29.256;2023-03-26T14:40:06;1007.1;;;14.3;53.5
74435;BME280;62867;52.038;29.256;2023-03-26T14:43:47;1007.2;;;14.3;53.1
74435;BME280;62867;52.038;29.256;2023-03-26T14:49:35;1007.2;;;14.2;53
74435;BME280;62867;52.038;29.256;2023-03-26T14:54:19;1007.3;;;14;53.6
74435;BME280;62867;52.038;29.256;2023-03-26T15:14:35;1007.4;;;13.1;56.1
74435;BME280;62867;52.038;29.256;2023-03-26T15:19:18;1007.4;;;13;56.5
74435;BME280;62867;52.038;29.256;2023-03-26T15:24:33;1007.4;;;12.8;58.4
74435;BME280;62867;52.038;29.256;2023-03-26T15:29:15;1007.4;;;12.7;57.4
74435;BME280;62867;52.038;29.256;2023-03-26T15:34:13;1007.4;;;12.6;58.8
74435;BME280;62867;52.038;29.256;2023-03-26T15:39:33;1007.3;;;12.5;58.9
74435;BME280;62867;52.038;29.256;2023-03-26T15:44:17;1007.3;;;12.4;58.4
74435;BME280;62867;52.038;29.256;2023-03-26T15:49:04;1007.3;;;12.2;58.3
74435;BME280;62867;52.038;29.256;2023-03-26T15:53:51;1007.3;;;12.1;58.4
74435;BME280;62867;52.038;29.256;2023-03-26T15:58:41;1007.3;;;11.9;59.6
74435;BME280;62867;52.038;29.256;2023-03-26T16:04:22;1007.3;;;11.8;60.1
74435;BME280;62867;52.038;29.256;2023-03-26T16:08:50;1007.4;;;11.7;60.5
74435;BME280;62867;52.038;29.256;2023-03-26T16:14:16;1007.4;;;11.6;60.3
74435;BME280;62867;52.038;29.256;2023-03-26T16:18:53;1007.5;;;11.5;59.8
74435;BME280;62867;52.038;29.256;2023-03-26T16:24:09;1007.5;;;11.4;60.7
74435;BME280;62867;52.038;29.256;2023-03-26T16:29:20;1007.6;;;11.3;60.9
74435;BME280;62867;52.038;29.256;2023-03-26T16:34:35;1007.6;;;11.2;61.6
74435;BME280;62867;52.038;29.256;2023-03-26T16:39:43;1007.7;;;11.1;61.7
74435;BME280;62867;52.038;29.256;2023-03-26T16:43:41;1007.7;;;11;61.8
74435;BME280;62867;52.038;29.256;2023-03-26T16:48:40;1007.7;;;10.8;62.6
74435;BME280;62867;52.038;29.256;2023-03-26T16:54:23;1007.7;;;10.7;62.9
74435;BME280;62867;52.038;29.256;2023-03-26T16:58:44;1007.7;;;10.6;62.8
74435;BME280;62867;52.038;29.256;2023-03-26T17:04:31;1007.7;;;10.5;63.2
74435;BME280;62867;52.038;29.256;2023-03-26T17:08:43;1007.7;;;10.4;63.1
74435;BME280;62867;52.038;29.256;2023-03-26T17:14:17;1007.7;;;10.4;63
74435;BME280;62867;52.038;29.256;2023-03-26T17:19:23;1007.7;;;10.3;63.4
74435;BME280;62867;52.038;29.256;2023-03-26T17:23:53;1007.7;;;10.3;63.2
74435;BME280;62867;52.038;29.256;2023-03-26T17:29:35;1007.8;;;10.3;63.1
74435;BME280;62867;52.038;29.256;2023-03-26T17:33:49;1007.9;;;10.2;63.7
74435;BME280;62867;52.038;29.256;2023-03-26T17:39:03;1007.9;;;10.2;64.1
74435;BME280;62867;52.038;29.256;2023-03-26T17:44:26;1008;;;10.1;64.1
74435;BME280;62867;52.038;29.256;2023-03-26T17:49:01;1008;;;10.1;65
74435;BME280;62867;52.038;29.256;2023-03-26T17:54:29;1008;;;10;65.7
74435;BME280;62867;52.038;29.256;2023-03-26T17:58:40;1008;;;9.9;65.8
74435;BME280;62867;52.038;29.256;2023-03-26T18:03:58;1008;;;9.8;65.7
74435;BME280;62867;52.038;29.256;2023-03-26T18:08:48;1008;;;9.6;66.1
74435;BME280;62867;52.038;29.256;2023-03-26T18:14:38;1008;;;9.6;66.1
74435;BME280;62867;52.038;29.256;2023-03-26T18:19:44;1008;;;9.6;66.1
74435;BME280;62867;52.038;29.256;2023-03-26T18:23:49;1007.9;;;9.5;66.4
74435;BME280;62867;52.038;29.256;2023-03-26T18:29:08;1007.9;;;9.5;66.3
74435;BME280;62867;52.038;29.256;2023-03-26T18:34:22;1008;;;9.4;66.7
74435;BME280;62867;52.038;29.256;2023-03-26T18:39:00;1008;;;9.4;67.2
74435;BME280;62867;52.038;29.256;2023-03-26T18:44:30;1008;;;9.3;67.2
74435;BME280;62867;52.038;29.256;2023-03-26T18:48:39;1007.9;;;9.2;67.5
74435;BME280;62867;52.038;29.256;2023-03-26T18:54:02;1007.9;;;9.1;67.9
74435;BME280;62867;52.038;29.256;2023-03-26T18:59:24;1008;;;9;68.7
74435;BME280;62867;52.038;29.256;2023-03-26T19:04:00;1008;;;9;68.6
74435;BME280;62867;52.038;29.256;2023-03-26T19:09:32;1008;;;8.9;68.8
74435;BME280;62867;52.038;29.256;2023-03-26T19:14:04;1008;;;8.9;69
74435;BME280;62867;52.038;29.256;2023-03-26T19:19:33;1008;;;8.9;69.2
74435;BME280;62867;52.038;29.256;2023-03-26T19:24:32;1008;;;8.9;69
74435;BME280;62867;52.038;29.256;2023-03-26T19:29:00;1008;;;8.9;68.9
74435;BME280;62867;52.038;29.256;2023-03-26T19:34:32;1007.9;;;8.9;68.8
74435;BME280;62867;52.038;29.256;2023-03-26T19:38:52;1007.9;;;8.8;69.2
74435;BME280;62867;52.038;29.256;2023-03-26T19:44:00;1007.9;;;8.7;69.2
74435;BME280;62867;52.038;29.256;2023-03-26T19:49:24;1008;;;8.7;69.1
74435;BME280;62867;52.038;29.256;2023-03-26T19:53:58;1008;;;8.5;69.2
74435;BME280;62867;52.038;29.256;2023-03-26T19:59:32;1007.9;;;8.5;69.4
74435;BME280;62867;52.038;29.256;2023-03-26T20:04:02;1007.9;;;8.4;69.9
74435;BME280;62867;52.038;29.256;2023-03-26T20:09:00;1007.9;;;8.4;69.7
74435;BME280;62867;52.038;29.256;2023-03-26T20:14:20;1007.9;;;8.4;69.7
74435;BME280;62867;52.038;29.256;2023-03-26T20:18:58;1007.9;;;8.5;69.9
74435;BME280;62867;52.038;29.256;2023-03-26T20:24:30;1007.9;;;8.6;69.9
74435;BME280;62867;52.038;29.256;2023-03-26T20:29:22;1007.9;;;8.7;69.8
74435;BME280;62867;52.038;29.256;2023-03-26T20:34:18;1007.9;;;8.8;69.7
74435;BME280;62867;52.038;29.256;2023-03-26T20:39:32;1007.8;;;8.8;69.9
74435;BME280;62867;52.038;29.256;2023-03-26T20:44:14;1007.8;;;8.7;70.2
74435;BME280;62867;52.038;29.256;2023-03-26T20:49:18;1007.8;;;8.7;69.7
74435;BME280;62867;52.038;29.256;2023-03-26T20:53:40;1007.8;;;8.7;69.6
74435;BME280;62867;52.038;29.256;2023-03-26T20:59:18;1007.9;;;8.6;69.5
74435;BME280;62867;52.038;29.256;2023-03-26T21:04:28;1007.9;;;8.5;69.5
74435;BME280;62867;52.038;29.256;2023-03-26T21:09:12;1007.9;;;8.4;69.7
74435;BME280;62867;52.038;29.256;2023-03-26T21:14:19;1007.9;;;8.3;69.7
74435;BME280;62867;52.038;29.256;2023-03-26T21:18:48;1007.9;;;8.2;69.8
74435;BME280;62867;52.038;29.256;2023-03-26T21:24:16;1008;;;8.1;70
74435;BME280;62867;52.038;29.256;2023-03-26T21:29:30;1008;;;8.1;70.2
74435;BME280;62867;52.038;29.256;2023-03-26T21:33:38;1008;;;8;70.5
74435;BME280;62867;52.038;29.256;2023-03-26T21:39:14;1008;;;8;70.5
74435;BME280;62867;52.038;29.256;2023-03-26T21:43:50;1008.1;;;8;70.3
74435;BME280;62867;52.038;29.256;2023-03-26T21:49:15;1008.1;;;7.9;70.3
74435;BME280;62867;52.038;29.256;2023-03-26T21:54:30;1008;;;7.8;70.3
74435;BME280;62867;52.038;29.256;2023-03-26T21:58:58;1008;;;7.8;70.3
74435;BME280;62867;52.038;29.256;2023-03-26T22:04:17;1008;;;7.7;70.3
74435;BME280;62867;52.038;29.256;2023-03-26T22:08:48;1008;;;7.7;70.2
74435;BME280;62867;52.038;29.256;2023-03-26T22:14:14;1008;;;7.6;70.4
74435;BME280;62867;52.038;29.256;2023-03-26T22:19:32;1008;;;7.5;70.3
74435;BME280;62867;52.038;29.256;2023-03-26T22:24:28;1008;;;7.4;70.6
74435;BME280;62867;52.038;29.256;2023-03-26T22:29:16;1008;;;7.4;71.2
74435;BME280;62867;52.038;29.256;2023-03-26T22:33:40;1007.9;;;7.3;70.9
74435;BME280;62867;52.038;29.256;2023-03-26T22:39:08;1008;;;7.3;71
74435;BME280;62867;52.038;29.256;2023-03-26T22:44:30;1008;;;7.2;71.2
74435;BME280;62867;52.038;29.256;2023-03-26T22:49:00;1008;;;7.2;71.2
74435;BME280;62867;52.038;29.256;2023-03-26T22:54:18;1007.9;;;7.2;71.5
74435;BME280;62867;52.038;29.256;2023-03-26T22:58:50;1007.9;;;7.2;71.3
74435;BME280;62867;52.038;29.256;2023-03-26T23:04:16;1007.9;;;7.2;71.1
74435;BME280;62867;52.038;29.256;2023-03-26T23:09:04;1007.9;;;7.1;71.1
74435;BME280;62867;52.038;29.256;2023-03-26T23:13:50;1007.8;;;7;71.3
74435;BME280;62867;52.038;29.256;2023-03-26T23:18:42;1007.8;;;7;71.5
74435;BME280;62867;52.038;29.256;2023-03-26T23:23:52;1007.9;;;6.9;71.4
74435;BME280;62867;52.038;29.256;2023-03-26T23:29:18;1007.9;;;6.9;71.3
74435;BME280;62867;52.038;29.256;2023-03-26T23:34:30;1007.8;;;6.9;71.7
74435;BME280;62867;52.038;29.256;2023-03-26T23:38:40;1007.8;;;6.9;72.1
74435;BME280;62867;52.038;29.256;2023-03-26T23:44:18;1007.8;;;6.9;71.7
74435;BME280;62867;52.038;29.256;2023-03-26T23:48:40;1007.8;;;6.8;71.7
74435;BME280;62867;52.038;29.256;2023-03-26T23:54:16;1007.7;;;6.8;71.6
74435;BME280;62867;52.038;29.256;2023-03-26T23:59:30;1007.6;;;6.8;71.5
